createdAt,value
2023-03-14T00:01:13.114Z,0.50
2023-03-14T00:06:16.648Z,0.60
2023-03-14T00:11:22.302Z,0.40
2023-03-14T00:16:27.243Z,0.80
2023-03-14T00:21:30.770Z,0.60
2023-03-14T00:26:34.585Z,0.60
2023-03-14T00:31:40.530Z,0.50
2023-03-14T00:36:47.228Z,1.10
2023-03-14T00:41:51.043Z,0.50
2023-03-14T00:46:56.235Z,0.50
2023-03-14T00:51:59.917Z,0.77
2023-03-14T00:57:03.428Z,0.67
2023-03-14T01:02:08.692Z,0.70
2023-03-14T01:07:12.072Z,0.70
2023-03-14T01:12:16.371Z,0.63
2023-03-14T01:17:21.362Z,0.60
2023-03-14T01:22:26.512Z,0.70
2023-03-14T01:27:30.143Z,0.80
2023-03-14T01:32:35.845Z,0.50
2023-03-14T01:37:39.573Z,0.30
2023-03-14T01:42:48.599Z,0.40
2023-03-14T01:47:53.628Z,0.30
2023-03-14T01:52:57.340Z,0.40
2023-03-14T01:58:05.331Z,0.30
2023-03-14T02:03:14.191Z,0.30
2023-03-14T02:08:21.219Z,0.30
2023-03-14T02:13:29.205Z,0.40
2023-03-14T02:18:52.875Z,0.30
2023-03-14T02:24:23.389Z,0.30
2023-03-14T02:29:35.542Z,0.20
2023-03-14T02:34:39.987Z,0.30
2023-03-14T02:39:46.969Z,0.43
2023-03-14T02:44:56.223Z,0.20
2023-03-14T02:50:05.751Z,0.30
2023-03-14T02:55:10.498Z,0.17
2023-03-14T03:00:22.859Z,0.20
2023-03-14T03:05:26.527Z,0.20
2023-03-14T03:10:30.443Z,0.30
2023-03-14T03:15:35.459Z,0.30
2023-03-14T03:20:38.896Z,0.20
2023-03-14T03:25:42.757Z,0.13
2023-03-14T03:30:48.046Z,0.23
2023-03-14T03:35:53.327Z,0.30
2023-03-14T03:41:06.279Z,0.40
2023-03-14T03:46:11.134Z,0.40
2023-03-14T03:51:16.004Z,0.50
2023-03-14T03:56:20.862Z,0.40
2023-03-14T04:01:25.660Z,0.60
2023-03-14T04:06:32.907Z,0.70
2023-03-14T04:11:37.949Z,0.60
2023-03-14T04:16:50.916Z,0.90
2023-03-14T04:21:56.998Z,0.80
2023-03-14T04:27:03.615Z,0.80
2023-03-14T04:32:09.403Z,0.40
2023-03-14T04:37:15.045Z,0.50
2023-03-14T04:42:21.203Z,0.60
2023-03-14T04:47:26.656Z,0.60
2023-03-14T04:52:31.586Z,0.50
2023-03-14T04:57:36.971Z,0.40
2023-03-14T05:02:42.178Z,0.50
2023-03-14T05:08:00.454Z,0.50
2023-03-14T05:13:30.105Z,0.23
2023-03-14T05:18:55.207Z,0.30
2023-03-14T05:24:21.819Z,0.30
2023-03-14T05:29:45.798Z,0.40
2023-03-14T05:34:59.348Z,0.40
2023-03-14T05:40:16.585Z,0.23
2023-03-14T05:45:34.389Z,0.20
2023-03-14T05:51:00.836Z,0.10
2023-03-14T05:56:33.473Z,0.20
2023-03-14T06:01:46.248Z,0.20
2023-03-14T06:06:58.310Z,0.20
2023-03-14T06:12:02.218Z,0.20
2023-03-14T06:17:10.778Z,0.30
2023-03-14T06:22:24.279Z,0.00
2023-03-14T06:27:27.649Z,0.17
2023-03-14T06:32:33.148Z,0.10
2023-03-14T06:37:42.985Z,0.20
2023-03-14T06:42:46.308Z,0.10
2023-03-14T06:47:51.972Z,0.10
2023-03-14T06:53:00.371Z,0.20
2023-03-14T06:58:04.755Z,0.10
2023-03-14T07:03:13.439Z,0.10
2023-03-14T07:08:20.218Z,0.10
2023-03-14T07:13:23.682Z,0.10
2023-03-14T07:18:34.145Z,0.10
2023-03-14T07:23:42.782Z,0.10
2023-03-14T07:28:53.746Z,0.47
2023-03-14T07:33:59.101Z,0.77
2023-03-14T07:39:08.699Z,0.70
2023-03-14T07:44:34.175Z,0.80
2023-03-14T07:49:37.824Z,0.60
2023-03-14T07:54:42.439Z,0.40
2023-03-14T07:59:46.548Z,0.40
2023-03-14T08:04:50.224Z,0.30
2023-03-14T08:09:54.886Z,0.90
2023-03-14T08:15:00.417Z,0.50
2023-03-14T08:20:04.577Z,0.60
2023-03-14T08:25:10.065Z,0.50
2023-03-14T08:30:15.446Z,0.50
2023-03-14T08:35:19.699Z,0.20
2023-03-14T08:40:24.892Z,0.30
2023-03-14T08:45:28.354Z,0.20
2023-03-14T08:50:31.891Z,0.10
2023-03-14T08:55:39.008Z,0.30
2023-03-14T09:00:42.452Z,0.30
2023-03-14T09:05:45.874Z,0.17
2023-03-14T09:10:51.022Z,0.10
2023-03-14T09:15:54.416Z,0.10
2023-03-14T09:20:58.260Z,0.30
2023-03-14T09:26:03.078Z,0.70
2023-03-14T09:31:10.270Z,0.40
2023-03-14T09:36:14.071Z,0.30
2023-03-14T09:41:23.638Z,0.20
2023-03-14T09:46:27.139Z,0.10
2023-03-14T09:51:32.682Z,0.10
2023-03-14T09:56:37.384Z,0.20
2023-03-14T10:01:40.655Z,0.20
2023-03-14T10:06:43.966Z,0.30
2023-03-14T10:11:48.635Z,0.10
2023-03-14T10:16:52.196Z,0.00
2023-03-14T10:21:56.686Z,0.30
2023-03-14T10:27:03.686Z,0.20
2023-03-14T10:32:08.921Z,0.20
2023-03-14T10:37:23.264Z,0.20
2023-03-14T10:42:30.796Z,0.30
2023-03-14T10:47:34.814Z,0.20
2023-03-14T10:53:01.380Z,0.40
2023-03-14T10:58:07.721Z,0.20
2023-03-14T11:03:13.824Z,0.20
2023-03-14T11:08:25.743Z,0.27
2023-03-14T11:13:35.833Z,0.30
2023-03-14T11:18:59.568Z,0.30
2023-03-14T11:24:14.744Z,0.30
2023-03-14T11:29:24.895Z,0.40
2023-03-14T11:34:31.115Z,0.30
2023-03-14T11:39:40.837Z,0.30
2023-03-14T11:44:48.376Z,0.40
2023-03-14T11:49:55.485Z,0.60
2023-03-14T11:55:04.855Z,0.60
2023-03-14T12:00:18.075Z,0.40
2023-03-14T12:05:44.697Z,0.30
2023-03-14T12:10:50.407Z,0.20
2023-03-14T12:15:59.727Z,0.37
2023-03-14T12:21:05.628Z,0.30
2023-03-14T12:26:15.880Z,0.27
2023-03-14T12:31:46.227Z,0.50
2023-03-14T12:37:07.404Z,0.60
2023-03-14T12:42:13.502Z,0.70
2023-03-14T12:47:52.965Z,0.77
2023-03-14T12:53:29.432Z,0.60
2023-03-14T12:58:37.645Z,0.70
2023-03-14T13:03:48.951Z,0.80
2023-03-14T13:08:57.185Z,0.93
2023-03-14T13:14:01.514Z,0.70
2023-03-14T13:19:15.527Z,0.70
2023-03-14T13:24:25.109Z,0.50
2023-03-14T13:29:32.448Z,0.83
2023-03-14T13:34:37.253Z,0.67
2023-03-14T13:39:42.247Z,0.60
2023-03-14T13:44:46.128Z,0.70
2023-03-14T13:49:51.641Z,0.60
2023-03-14T13:54:58.596Z,0.40
2023-03-14T14:00:06.866Z,0.80
2023-03-14T14:05:14.331Z,0.60
2023-03-14T14:10:17.797Z,0.50
2023-03-14T14:15:24.205Z,0.60
2023-03-14T14:20:36.047Z,0.50
2023-03-14T14:25:40.585Z,0.50
2023-03-14T14:30:44.898Z,0.40
2023-03-14T14:35:58.174Z,0.50
2023-03-14T14:41:03.807Z,0.70
2023-03-14T14:46:10.205Z,0.50
2023-03-14T14:51:26.757Z,0.57
2023-03-14T14:56:31.112Z,0.30
2023-03-14T15:01:37.157Z,0.80
2023-03-14T15:06:44.272Z,0.43
2023-03-14T15:11:47.921Z,0.53
2023-03-14T15:16:51.268Z,0.77
2023-03-14T15:21:55.798Z,0.50
2023-03-14T15:26:59.147Z,0.70
2023-03-14T15:32:02.337Z,0.50
2023-03-14T15:37:08.261Z,0.90
2023-03-14T15:42:11.800Z,0.63
2023-03-14T15:47:15.205Z,0.80
2023-03-14T15:52:20.086Z,0.67
2023-03-14T15:57:23.223Z,0.73
2023-03-14T16:02:26.594Z,0.60
2023-03-14T16:07:32.521Z,0.80
2023-03-14T16:12:37.013Z,0.53
2023-03-14T16:17:43.453Z,0.70
2023-03-14T16:22:48.221Z,0.67
2023-03-14T16:28:00.615Z,0.90
2023-03-14T16:33:12.761Z,0.77
2023-03-14T16:38:17.635Z,0.70
2023-03-14T16:43:20.967Z,0.63
2023-03-14T16:48:24.469Z,0.57
2023-03-14T16:53:30.227Z,0.57
2023-03-14T16:58:34.121Z,0.50
2023-03-14T17:03:38.131Z,0.53
2023-03-14T17:08:43.045Z,0.70
2023-03-14T17:13:46.550Z,0.50
2023-03-14T17:18:49.923Z,0.37
2023-03-14T17:23:55.869Z,0.70
2023-03-14T17:28:58.990Z,0.40
2023-03-14T17:34:02.361Z,0.50
2023-03-14T17:39:09.004Z,0.50
2023-03-14T17:44:12.120Z,0.40
2023-03-14T17:49:15.659Z,0.50
2023-03-14T17:54:20.325Z,0.50
2023-03-14T17:59:23.513Z,0.30
2023-03-14T18:04:26.809Z,0.40
2023-03-14T18:09:31.939Z,0.50
2023-03-14T18:14:35.547Z,0.50
2023-03-14T18:19:39.053Z,0.60
2023-03-14T18:24:43.825Z,0.40
2023-03-14T18:29:47.044Z,0.47
2023-03-14T18:34:50.886Z,0.37
2023-03-14T18:39:55.880Z,0.60
2023-03-14T18:44:59.188Z,0.53
2023-03-14T18:50:03.182Z,0.63
2023-03-14T18:55:08.674Z,0.50
2023-03-14T19:00:13.997Z,0.57
2023-03-14T19:05:17.622Z,0.80
2023-03-14T19:10:22.582Z,0.70
2023-03-14T19:15:25.706Z,0.93
2023-03-14T19:20:29.286Z,0.77
2023-03-14T19:25:34.097Z,0.77
2023-03-14T19:30:37.209Z,0.57
2023-03-14T19:35:40.396Z,0.50
2023-03-14T19:40:46.241Z,0.50
2023-03-14T19:45:50.062Z,0.63
2023-03-14T19:50:53.513Z,0.50
2023-03-14T19:55:58.297Z,0.60
2023-03-14T20:01:02.676Z,0.50
2023-03-14T20:06:06.422Z,0.30
2023-03-14T20:11:11.366Z,0.97
2023-03-14T20:16:14.786Z,0.50
2023-03-14T20:21:18.104Z,0.60
2023-03-14T20:26:22.672Z,0.47
2023-03-14T20:31:26.117Z,0.73
2023-03-14T20:36:29.271Z,0.70
2023-03-14T20:41:34.209Z,0.40
2023-03-14T20:46:37.339Z,0.30
2023-03-14T20:51:40.772Z,0.50
2023-03-14T20:56:46.323Z,0.30
2023-03-14T21:01:51.465Z,0.63
2023-03-14T21:06:55.404Z,0.50
2023-03-14T21:12:00.293Z,0.50
2023-03-14T21:17:03.932Z,0.30
2023-03-14T21:22:07.359Z,0.40
2023-03-14T21:27:12.937Z,0.40
2023-03-14T21:32:16.473Z,0.40
2023-03-14T21:37:20.303Z,0.70
2023-03-14T21:42:25.218Z,0.40
2023-03-14T21:47:28.488Z,0.40
2023-03-14T21:52:31.888Z,0.53
2023-03-14T21:57:36.495Z,0.50
2023-03-14T22:02:40.729Z,0.40
2023-03-14T22:07:45.398Z,0.40
2023-03-14T22:12:50.144Z,0.30
2023-03-14T22:17:53.491Z,0.30
2023-03-14T22:22:56.832Z,0.40
2023-03-14T22:28:01.297Z,0.33
2023-03-14T22:33:04.742Z,0.30
2023-03-14T22:38:08.076Z,0.47
2023-03-14T22:43:12.570Z,0.40
2023-03-14T22:48:16.361Z,0.50
2023-03-14T22:53:20.010Z,0.50
2023-03-14T22:58:24.506Z,0.40
2023-03-14T23:03:28.688Z,0.57
2023-03-14T23:08:33.200Z,0.30
2023-03-14T23:13:37.925Z,0.60
2023-03-14T23:18:43.442Z,0.40
2023-03-14T23:23:48.884Z,1.10
2023-03-14T23:28:54.996Z,0.50
2023-03-14T23:33:58.153Z,0.50
2023-03-14T23:39:01.261Z,0.60
2023-03-14T23:44:05.908Z,0.80
2023-03-14T23:49:09.042Z,0.60
2023-03-14T23:54:12.591Z,0.70
2023-03-14T23:59:17.187Z,0.50
